Check out our new BloomSky Weather System.

Active alerts

Galveston, TX
  Details for Galveston, TX Coastal Flood Advisory  +2 additional alerts
Houston, TX
  Details for Houston, TX Flash Flood Watch
Fort Bend, TX
  Details for Fort Bend, TX Flash Flood Watch


Thunder radar  blitzortung!


Rain radar more information rain snow radar


Visit our other weather sites:

Template documentation
and downloads

And another site



Weather Underground History page Text

Daily Summary for March 28, 2017 Units:  English    Metric   Both
« Previous Day
Next Day »
Daily Weekly Monthly Yearly Custom
  High: Low: Average:
Temperature: TemperatureF °F 69.8 °F 76.3 °F
Dew Point: DewpointF °F 67.5 °F 70.1 °F
Humidity: Humidity % 58 % 82 %
Wind Speed: WindSpeedMPH mph 0.0 mph 5.4 mph
Wind Gust: WindSpeedGustMPH mph - -
Wind:- - SE
Pressure: PressureIn in 29.73 in -
Precipitation: 0.00 in    
Historical Graphs
 
 
Tabular Data for March 28, 2017
Time Temperature Dew Point Pressure Wind Wind Speed Wind Gust Humidity Rainfall Rate (Hourly)
TemperatureF °F DewpointF °F PressureIn in Calm     Humidity % HourlyPrecipIn in
00:02 72.1 °F 69.6 °F 29.86 in SSE 2.0 mph 5.0 mph 92 % 0.00 in
00:07 72.0 °F 69.4 °F 29.87 in Calm   4.0 mph 92 % 0.00 in
00:12 72.0 °F 69.8 °F 29.87 in SE 3.0 mph 3.0 mph 93 % 0.00 in
00:13 72.0 °F 69.8 °F 29.87 in SE 2.0 mph 3.0 mph 93 % 0.00 in
00:18 72.0 °F 69.8 °F 29.87 in Calm   3.0 mph 93 % 0.00 in
00:23 71.8 °F 69.6 °F 29.87 in Calm   3.0 mph 93 % 0.00 in
00:28 71.8 °F 70.0 °F 29.87 in Calm   3.0 mph 94 % 0.00 in
00:33 71.8 °F 70.0 °F 29.86 in SSE 1.0 mph 4.0 mph 94 % 0.00 in
00:38 71.8 °F 70.0 °F 29.86 in ESE 4.0 mph 4.0 mph 94 % 0.00 in
00:43 72.0 °F 70.2 °F 29.86 in SE 3.0 mph 4.0 mph 94 % 0.00 in
00:48 72.0 °F 70.2 °F 29.86 in ESE 3.0 mph 4.0 mph 94 % 0.00 in
00:53 72.1 °F 70.3 °F 29.86 in SE 2.0 mph 5.0 mph 94 % 0.00 in
00:58 72.0 °F 70.2 °F 29.86 in SE 2.0 mph 5.0 mph 94 % 0.00 in
01:03 72.0 °F 70.2 °F 29.86 in East 3.0 mph 5.0 mph 94 % 0.00 in
01:08 72.0 °F 70.2 °F 29.86 in ESE 3.0 mph 5.0 mph 94 % 0.00 in
01:13 71.8 °F 70.3 °F 29.86 in SSE 1.0 mph 5.0 mph 95 % 0.00 in
01:18 71.8 °F 70.3 °F 29.86 in SE 2.0 mph 5.0 mph 95 % 0.00 in
01:23 71.8 °F 70.3 °F 29.86 in Calm   5.0 mph 95 % 0.00 in
01:28 71.8 °F 70.3 °F 29.86 in ESE 2.0 mph 2.0 mph 95 % 0.00 in
01:33 71.8 °F 70.3 °F 29.86 in SSE 2.0 mph 2.0 mph 95 % 0.00 in
01:38 71.8 °F 70.3 °F 29.86 in Calm   2.0 mph 95 % 0.00 in
01:43 71.8 °F 70.3 °F 29.86 in ESE 1.0 mph 2.0 mph 95 % 0.00 in
01:48 71.8 °F 70.3 °F 29.86 in Calm   3.0 mph 95 % 0.00 in
01:53 71.8 °F 70.3 °F 29.86 in Calm   3.0 mph 95 % 0.00 in
01:58 71.8 °F 70.3 °F 29.86 in NE 1.0 mph 3.0 mph 95 % 0.00 in
02:03 71.8 °F 70.5 °F 29.86 in SE 2.0 mph 4.0 mph 96 % 0.00 in
02:08 71.8 °F 70.5 °F 29.86 in ESE 1.0 mph 4.0 mph 96 % 0.00 in
02:13 72.0 °F 70.7 °F 29.86 in ESE 4.0 mph 6.0 mph 96 % 0.00 in
02:18 72.1 °F 70.9 °F 29.86 in SE 2.0 mph 6.0 mph 96 % 0.00 in
02:23 72.3 °F 70.9 °F 29.86 in SE 2.0 mph 6.0 mph 95 % 0.00 in
02:28 72.3 °F 70.9 °F 29.86 in SE 2.0 mph 6.0 mph 95 % 0.00 in
02:33 72.3 °F 70.9 °F 29.86 in ESE 2.0 mph 6.0 mph 95 % 0.00 in
02:38 72.3 °F 70.9 °F 29.86 in ESE 2.0 mph 5.0 mph 95 % 0.00 in
02:43 72.3 °F 70.9 °F 29.86 in SE 1.0 mph 5.0 mph 95 % 0.00 in
02:48 72.1 °F 70.7 °F 29.86 in ESE 2.0 mph 5.0 mph 95 % 0.00 in
02:53 72.1 °F 70.7 °F 29.85 in ESE 2.0 mph 4.0 mph 95 % 0.00 in
02:58 72.0 °F 70.5 °F 29.85 in ESE 1.0 mph 4.0 mph 95 % 0.00 in
03:03 72.0 °F 70.5 °F 29.85 in Calm   4.0 mph 95 % 0.00 in
03:08 71.8 °F 70.3 °F 29.85 in Calm   4.0 mph 95 % 0.00 in
03:13 71.6 °F 70.2 °F 29.85 in ESE 1.0 mph 2.0 mph 95 % 0.00 in
03:18 71.4 °F 70.2 °F 29.85 in Calm   2.0 mph 96 % 0.00 in
03:23 71.4 °F 70.2 °F 29.85 in Calm   2.0 mph 96 % 0.00 in
03:28 71.2 °F 70.0 °F 29.84 in Calm   2.0 mph 96 % 0.00 in
03:34 71.2 °F 70.0 °F 29.84 in Calm   2.0 mph 96 % 0.00 in
03:38 71.2 °F 70.0 °F 29.84 in ESE 1.0 mph 2.0 mph 96 % 0.00 in
03:44 71.2 °F 70.0 °F 29.84 in Calm   2.0 mph 96 % 0.00 in
03:49 71.2 °F 70.0 °F 29.84 in ESE 1.0 mph 2.0 mph 96 % 0.00 in
03:54 71.1 °F 69.8 °F 29.84 in Calm   2.0 mph 96 % 0.00 in
03:59 71.1 °F 69.8 °F 29.83 in Calm   2.0 mph 96 % 0.00 in
04:14 70.5 °F 69.3 °F 29.83 in Calm   1.0 mph 96 % 0.00 in
04:19 70.3 °F 69.1 °F 29.84 in Calm   1.0 mph 96 % 0.00 in
04:24 70.2 °F 68.9 °F 29.84 in Calm   1.0 mph 96 % 0.00 in
04:29 70.2 °F 69.3 °F 29.84 in Calm     97 % 0.00 in
04:34 70.2 °F 69.3 °F 29.83 in Calm     97 % 0.00 in
04:39 70.2 °F 69.3 °F 29.83 in Calm   1.0 mph 97 % 0.00 in
04:44 70.0 °F 69.1 °F 29.83 in Calm   1.0 mph 97 % 0.00 in
04:49 70.0 °F 69.1 °F 29.83 in Calm   1.0 mph 97 % 0.00 in
04:54 70.0 °F 69.1 °F 29.84 in Calm   1.0 mph 97 % 0.00 in
04:59 70.0 °F 69.1 °F 29.84 in Calm   1.0 mph 97 % 0.00 in
05:04 70.2 °F 69.3 °F 29.83 in Calm   1.0 mph 97 % 0.00 in
05:09 70.2 °F 69.3 °F 29.83 in Calm     97 % 0.00 in
05:14 70.2 °F 69.3 °F 29.84 in Calm   1.0 mph 97 % 0.00 in
05:19 70.2 °F 69.3 °F 29.84 in Calm   1.0 mph 97 % 0.00 in
05:24 70.2 °F 69.3 °F 29.84 in Calm   1.0 mph 97 % 0.00 in
05:29 70.2 °F 69.3 °F 29.84 in Calm   1.0 mph 97 % 0.00 in
05:34 70.2 °F 69.3 °F 29.83 in Calm   1.0 mph 97 % 0.00 in
05:39 70.2 °F 69.3 °F 29.83 in Calm   1.0 mph 97 % 0.00 in
05:44 70.2 °F 69.3 °F 29.83 in Calm   1.0 mph 97 % 0.00 in
05:49 70.0 °F 69.1 °F 29.83 in Calm   1.0 mph 97 % 0.00 in
05:54 70.0 °F 69.1 °F 29.83 in Calm   1.0 mph 97 % 0.00 in
05:59 70.0 °F 69.1 °F 29.83 in Calm   1.0 mph 97 % 0.00 in
06:04 69.8 °F 68.9 °F 29.83 in Calm   1.0 mph 97 % 0.00 in
06:09 69.8 °F 68.9 °F 29.84 in Calm   1.0 mph 97 % 0.00 in
06:15 69.8 °F 69.3 °F 29.84 in Calm   1.0 mph 98 % 0.00 in
06:20 70.0 °F 69.4 °F 29.84 in Calm   1.0 mph 98 % 0.00 in
06:25 70.2 °F 69.6 °F 29.84 in Calm   1.0 mph 98 % 0.00 in
06:30 70.2 °F 69.6 °F 29.84 in Calm   1.0 mph 98 % 0.00 in
06:35 70.3 °F 69.8 °F 29.84 in Calm   1.0 mph 98 % 0.00 in
06:40 70.5 °F 70.0 °F 29.84 in Calm   1.0 mph 98 % 0.00 in
06:45 70.5 °F 70.0 °F 29.85 in Calm   1.0 mph 98 % 0.00 in
06:50 70.7 °F 70.2 °F 29.84 in Calm   1.0 mph 98 % 0.00 in
06:55 70.9 °F 70.3 °F 29.85 in Calm   2.0 mph 98 % 0.00 in
07:00 70.9 °F 70.3 °F 29.84 in Calm   2.0 mph 98 % 0.00 in
07:05 70.9 °F 70.3 °F 29.85 in Calm   2.0 mph 98 % 0.00 in
07:10 70.9 °F 70.3 °F 29.84 in Calm   1.0 mph 98 % 0.00 in
07:15 70.9 °F 70.3 °F 29.85 in Calm   1.0 mph 98 % 0.00 in
07:20 70.9 °F 70.3 °F 29.85 in East 1.0 mph 2.0 mph 98 % 0.00 in
07:25 70.9 °F 70.3 °F 29.85 in Calm   2.0 mph 98 % 0.00 in
07:30 70.9 °F 70.3 °F 29.85 in Calm   2.0 mph 98 % 0.00 in
07:35 70.9 °F 70.3 °F 29.85 in Calm   1.0 mph 98 % 0.00 in
07:40 70.7 °F 70.2 °F 29.85 in Calm   1.0 mph 98 % 0.00 in
07:45 70.7 °F 70.2 °F 29.85 in Calm   1.0 mph 98 % 0.00 in
07:50 70.5 °F 70.0 °F 29.85 in Calm   1.0 mph 98 % 0.00 in
07:55 70.7 °F 70.2 °F 29.86 in Calm   1.0 mph 98 % 0.00 in
08:00 70.9 °F 70.3 °F 29.86 in Calm   1.0 mph 98 % 0.00 in
08:05 70.9 °F 70.3 °F 29.86 in Calm   2.0 mph 98 % 0.00 in
08:10 71.1 °F 70.5 °F 29.86 in Calm   2.0 mph 98 % 0.00 in
08:15 71.2 °F 70.7 °F 29.86 in ENE 1.0 mph 2.0 mph 98 % 0.00 in
08:20 71.4 °F 70.9 °F 29.86 in Calm   3.0 mph 98 % 0.00 in
08:22 71.4 °F 70.9 °F 29.86 in Calm   3.0 mph 98 % 0.00 in
08:27 71.4 °F 70.9 °F 29.86 in SSE 1.0 mph 3.0 mph 98 % 0.00 in
08:32 71.6 °F 71.1 °F 29.86 in ENE 2.0 mph 3.0 mph 98 % 0.00 in
08:37 72.0 °F 71.4 °F 29.86 in East 2.0 mph 3.0 mph 98 % 0.00 in
08:42 72.3 °F 71.8 °F 29.86 in ESE 1.0 mph 5.0 mph 98 % 0.00 in
08:47 72.5 °F 72.0 °F 29.86 in NE 2.0 mph 6.0 mph 98 % 0.00 in
08:52 72.7 °F 72.1 °F 29.86 in East 1.0 mph 6.0 mph 98 % 0.00 in
08:57 72.9 °F 72.3 °F 29.86 in East 1.0 mph 6.0 mph 98 % 0.00 in
09:02 73.2 °F 72.3 °F 29.86 in ENE 2.0 mph 4.0 mph 97 % 0.00 in
09:07 73.6 °F 72.7 °F 29.86 in East 3.0 mph 7.0 mph 97 % 0.00 in
09:12 73.9 °F 72.7 °F 29.86 in East 3.0 mph 10.0 mph 96 % 0.00 in
09:17 74.3 °F 72.9 °F 29.86 in ESE 4.0 mph 10.0 mph 95 % 0.00 in
09:22 74.7 °F 72.5 °F 29.86 in ESE 9.0 mph 10.0 mph 93 % 0.00 in
09:27 74.7 °F 71.8 °F 29.87 in SSW 6.0 mph 11.0 mph 91 % 0.00 in
09:32 75.0 °F 71.6 °F 29.87 in SSE 5.0 mph 11.0 mph 89 % 0.00 in
09:37 75.4 °F 72.0 °F 29.87 in ESE 5.0 mph 11.0 mph 89 % 0.00 in
09:42 75.6 °F 71.8 °F 29.87 in SSE 3.0 mph 11.0 mph 88 % 0.00 in
09:47 75.9 °F 72.1 °F 29.87 in SE 3.0 mph 11.0 mph 88 % 0.00 in
09:52 75.9 °F 71.4 °F 29.87 in ESE 4.0 mph 9.0 mph 86 % 0.00 in
09:57 76.5 °F 71.6 °F 29.88 in SE 4.0 mph 9.0 mph 85 % 0.00 in
10:02 76.8 °F 72.0 °F 29.88 in SE 6.0 mph 9.0 mph 85 % 0.00 in
10:07 76.8 °F 71.2 °F 29.87 in SSE 5.0 mph 9.0 mph 83 % 0.00 in
10:12 76.8 °F 71.2 °F 29.88 in SE 3.0 mph 9.0 mph 83 % 0.00 in
10:17 77.0 °F 71.8 °F 29.88 in ESE 6.0 mph 9.0 mph 84 % 0.00 in
10:22 77.2 °F 71.2 °F 29.88 in SSE 3.0 mph 9.0 mph 82 % 0.00 in
10:27 77.5 °F 71.6 °F 29.88 in SE 4.0 mph 9.0 mph 82 % 0.00 in
10:32 78.3 °F 70.9 °F 29.88 in SSE 3.0 mph 11.0 mph 78 % 0.00 in
10:37 78.4 °F 71.1 °F 29.88 in SE 8.0 mph 11.0 mph 78 % 0.00 in
10:42 79.2 °F 71.2 °F 29.88 in SE 8.0 mph 11.0 mph 77 % 0.00 in
10:47 79.5 °F 70.5 °F 29.88 in South 6.0 mph 10.0 mph 74 % 0.00 in
10:52 79.9 °F 70.0 °F 29.88 in ESE 7.0 mph 10.0 mph 72 % 0.00 in
10:57 79.9 °F 70.0 °F 29.88 in East 7.0 mph 10.0 mph 72 % 0.00 in
11:02 80.2 °F 70.9 °F 29.88 in SSE 7.0 mph 14.0 mph 73 % 0.00 in
11:07 80.2 °F 70.0 °F 29.88 in ESE 4.0 mph 14.0 mph 71 % 0.00 in
11:12 80.4 °F 70.5 °F 29.87 in East 5.0 mph 14.0 mph 72 % 0.00 in
11:17 80.6 °F 70.3 °F 29.87 in ESE 7.0 mph 14.0 mph 71 % 0.00 in
11:22 80.6 °F 70.3 °F 29.87 in ESE 11.0 mph 12.0 mph 71 % 0.00 in
11:27 80.8 °F 69.6 °F 29.87 in SE 9.0 mph 14.0 mph 69 % 0.00 in
11:32 81.1 °F 69.6 °F 29.87 in SSE 7.0 mph 14.0 mph 68 % 0.00 in
11:37 81.3 °F 70.2 °F 29.87 in SE 3.0 mph 15.0 mph 69 % 0.00 in
11:43 81.9 °F 69.4 °F 29.87 in ESE 6.0 mph 15.0 mph 66 % 0.00 in
11:48 82.0 °F 70.0 °F 29.87 in ESE 4.0 mph 15.0 mph 67 % 0.00 in
11:53 82.0 °F 70.0 °F 29.87 in SE 13.0 mph 13.0 mph 67 % 0.00 in
11:58 81.9 °F 69.8 °F 29.87 in SE 6.0 mph 14.0 mph 67 % 0.00 in
12:03 82.2 °F 69.8 °F 29.87 in ESE 12.0 mph 14.0 mph 66 % 0.00 in
12:08 82.2 °F 69.8 °F 29.86 in ESE 7.0 mph 14.0 mph 66 % 0.00 in
12:13 82.4 °F 70.0 °F 29.86 in SSE 5.0 mph 14.0 mph 66 % 0.00 in
12:18 82.9 °F 68.5 °F 29.86 in SSE 8.0 mph 14.0 mph 62 % 0.00 in
12:23 82.9 °F 69.1 °F 29.86 in SE 7.0 mph 20.0 mph 63 % 0.00 in
12:28 83.3 °F 68.4 °F 29.86 in SSE 10.0 mph 20.0 mph 61 % 0.00 in
12:33 83.7 °F 69.8 °F 29.86 in SSE 6.0 mph 20.0 mph 63 % 0.00 in
12:38 83.5 °F 67.6 °F 29.85 in ESE 12.0 mph 18.0 mph 59 % 0.00 in
12:43 83.8 °F 68.5 °F 29.85 in South 9.0 mph 18.0 mph 60 % 0.00 in
12:48 83.8 °F 68.9 °F 29.85 in South 8.0 mph 19.0 mph 61 % 0.00 in
12:53 84.4 °F 68.9 °F 29.85 in SE 9.0 mph 19.0 mph 60 % 0.00 in
12:58 84.4 °F 68.5 °F 29.85 in SE 9.0 mph 19.0 mph 59 % 0.00 in
13:03 84.6 °F 68.7 °F 29.85 in South 6.0 mph 18.0 mph 59 % 0.00 in
13:08 84.6 °F 70.2 °F 29.84 in SE 4.0 mph 18.0 mph 62 % 0.00 in
13:13 84.2 °F 70.2 °F 29.84 in SE 6.0 mph 18.0 mph 63 % 0.00 in
13:18 83.8 °F 71.2 °F 29.84 in South 7.0 mph 18.0 mph 66 % 0.00 in
13:23 83.5 °F 70.9 °F 29.84 in ENE 9.0 mph 17.0 mph 66 % 0.00 in
13:28 83.7 °F 70.7 °F 29.83 in SSE 8.0 mph 17.0 mph 65 % 0.00 in
13:33 83.5 °F 70.5 °F 29.83 in East 5.0 mph 20.0 mph 65 % 0.00 in
13:38 84.0 °F 70.5 °F 29.83 in SE 7.0 mph 20.0 mph 64 % 0.00 in
13:43 84.0 °F 70.0 °F 29.82 in ENE 11.0 mph 20.0 mph 63 % 0.00 in
13:48 84.0 °F 70.0 °F 29.82 in ENE 16.0 mph 16.0 mph 63 % 0.00 in
13:53 84.0 °F 70.0 °F 29.82 in ESE 8.0 mph 17.0 mph 63 % 0.00 in
13:58 84.4 °F 70.0 °F 29.82 in SE 7.0 mph 17.0 mph 62 % 0.00 in
14:01 84.2 °F 69.3 °F 29.82 in ESE 12.0 mph 17.0 mph 61 % 0.00 in
14:06 84.4 °F 68.9 °F 29.81 in ESE 10.0 mph 18.0 mph 60 % 0.00 in
14:11 84.6 °F 71.1 °F 29.81 in South 6.0 mph 18.0 mph 64 % 0.00 in
14:16 84.4 °F 68.0 °F 29.81 in SE 16.0 mph 18.0 mph 58 % 0.00 in
14:21 83.8 °F 67.5 °F 29.81 in SSE 11.0 mph 18.0 mph 58 % 0.00 in
14:26 84.0 °F 68.7 °F 29.81 in ESE 9.0 mph 18.0 mph 60 % 0.00 in
14:31 84.4 °F 70.9 °F 29.80 in ESE 5.0 mph 18.0 mph 64 % 0.00 in
14:36 84.6 °F 70.5 °F 29.80 in SSE 6.0 mph 17.0 mph 63 % 0.00 in
14:41 84.7 °F 69.3 °F 29.80 in SSE 7.0 mph 17.0 mph 60 % 0.00 in
14:46 84.4 °F 69.4 °F 29.79 in ESE 7.0 mph 17.0 mph 61 % 0.00 in
14:51 84.6 °F 70.2 °F 29.80 in SE 6.0 mph 17.0 mph 62 % 0.00 in
14:56 84.7 °F 69.3 °F 29.79 in ESE 7.0 mph 17.0 mph 60 % 0.00 in
15:02 84.7 °F 70.7 °F 29.79 in SE 7.0 mph 18.0 mph 63 % 0.00 in
15:07 84.7 °F 70.7 °F 29.78 in East 4.0 mph 18.0 mph 63 % 0.00 in
15:12 84.7 °F 70.3 °F 29.78 in ENE 9.0 mph 18.0 mph 62 % 0.00 in
15:17 84.9 °F 70.5 °F 29.78 in SSE 7.0 mph 16.0 mph 62 % 0.00 in
15:22 84.4 °F 70.0 °F 29.78 in SE 11.0 mph 19.0 mph 62 % 0.00 in
15:27 83.8 °F 70.0 °F 29.77 in SE 10.0 mph 21.0 mph 63 % 0.00 in
15:32 84.2 °F 69.8 °F 29.77 in SE 4.0 mph 21.0 mph 62 % 0.00 in
15:37 84.4 °F 70.0 °F 29.77 in ESE 4.0 mph 21.0 mph 62 % 0.00 in
15:42 84.0 °F 70.5 °F 29.77 in East 13.0 mph 18.0 mph 64 % 0.00 in
15:47 84.0 °F 71.1 °F 29.77 in ESE 9.0 mph 20.0 mph 65 % 0.00 in
15:52 84.2 °F 70.2 °F 29.76 in SE 6.0 mph 20.0 mph 63 % 0.00 in
15:57 84.0 °F 70.5 °F 29.76 in SE 6.0 mph 20.0 mph 64 % 0.00 in
16:02 83.8 °F 70.9 °F 29.76 in SE 4.0 mph 15.0 mph 65 % 0.00 in
16:07 83.8 °F 70.9 °F 29.76 in ESE 8.0 mph 15.0 mph 65 % 0.00 in
16:12 83.7 °F 70.7 °F 29.75 in South 3.0 mph 19.0 mph 65 % 0.00 in
16:17 83.5 °F 71.4 °F 29.75 in East 7.0 mph 19.0 mph 67 % 0.00 in
16:22 83.1 °F 70.5 °F 29.75 in SE 9.0 mph 19.0 mph 66 % 0.00 in
16:27 82.8 °F 71.1 °F 29.75 in SE 13.0 mph 17.0 mph 68 % 0.00 in
16:32 82.2 °F 71.1 °F 29.75 in East 5.0 mph 17.0 mph 69 % 0.00 in
16:37 82.2 °F 71.4 °F 29.75 in ENE 6.0 mph 17.0 mph 70 % 0.00 in
16:42 82.2 °F 71.1 °F 29.75 in ESE 12.0 mph 16.0 mph 69 % 0.00 in
16:47 82.2 °F 71.4 °F 29.75 in ESE 12.0 mph 15.0 mph 70 % 0.00 in
16:52 82.2 °F 71.4 °F 29.75 in SE 12.0 mph 15.0 mph 70 % 0.00 in
16:57 81.9 °F 71.1 °F 29.74 in SE 9.0 mph 18.0 mph 70 % 0.00 in
17:02 81.7 °F 70.9 °F 29.74 in East 13.0 mph 18.0 mph 70 % 0.00 in
17:08 81.3 °F 71.1 °F 29.74 in SE 10.0 mph 18.0 mph 71 % 0.00 in
17:13 81.3 °F 71.4 °F 29.74 in SE 11.0 mph 17.0 mph 72 % 0.00 in
17:18 81.0 °F 70.7 °F 29.74 in SE 7.0 mph 16.0 mph 71 % 0.00 in
17:23 80.8 °F 70.9 °F 29.74 in ESE 7.0 mph 16.0 mph 72 % 0.00 in
17:28 81.0 °F 71.1 °F 29.74 in SE 7.0 mph 16.0 mph 72 % 0.00 in
17:33 81.0 °F 70.2 °F 29.73 in SE 8.0 mph 16.0 mph 70 % 0.00 in
17:38 81.1 °F 70.3 °F 29.74 in South 6.0 mph 17.0 mph 70 % 0.00 in
17:43 81.5 °F 70.0 °F 29.74 in South 11.0 mph 17.0 mph 68 % 0.00 in
17:48 81.3 °F 68.9 °F 29.74 in ESE 6.0 mph 17.0 mph 66 % 0.00 in
17:53 81.9 °F 70.3 °F 29.74 in East 13.0 mph 17.0 mph 68 % 0.00 in
17:58 81.1 °F 70.0 °F 29.75 in SE 5.0 mph 17.0 mph 69 % 0.00 in
18:03 80.8 °F 69.6 °F 29.74 in East 14.0 mph 17.0 mph 69 % 0.00 in
18:08 80.4 °F 69.3 °F 29.74 in SE 11.0 mph 14.0 mph 69 % 0.00 in
18:13 79.9 °F 69.3 °F 29.74 in SE 8.0 mph 20.0 mph 70 % 0.00 in
18:18 79.5 °F 68.9 °F 29.74 in ESE 8.0 mph 20.0 mph 70 % 0.00 in
18:23 79.5 °F 69.3 °F 29.74 in ESE 12.0 mph 20.0 mph 71 % 0.00 in
18:28 79.3 °F 69.4 °F 29.74 in ESE 14.0 mph 20.0 mph 72 % 0.00 in
18:33 79.2 °F 69.8 °F 29.74 in East 12.0 mph 19.0 mph 73 % 0.00 in
18:38 79.2 °F 70.2 °F 29.74 in SE 5.0 mph 18.0 mph 74 % 0.00 in
18:43 79.0 °F 70.0 °F 29.75 in SE 8.0 mph 18.0 mph 74 % 0.00 in
18:48 78.8 °F 70.2 °F 29.75 in SE 15.0 mph 17.0 mph 75 % 0.00 in
18:53 78.4 °F 70.2 °F 29.75 in East 7.0 mph 17.0 mph 76 % 0.00 in
18:58 78.1 °F 70.3 °F 29.75 in SE 9.0 mph 17.0 mph 77 % 0.00 in
19:03 77.9 °F 70.5 °F 29.74 in ESE 9.0 mph 17.0 mph 78 % 0.00 in
19:08 77.7 °F 70.7 °F 29.75 in ESE 10.0 mph 17.0 mph 79 % 0.00 in
19:13 77.5 °F 70.5 °F 29.75 in ESE 13.0 mph 17.0 mph 79 % 0.00 in
19:18 77.4 °F 70.3 °F 29.75 in ESE 4.0 mph 16.0 mph 79 % 0.00 in
19:23 77.4 °F 70.7 °F 29.75 in ESE 8.0 mph 16.0 mph 80 % 0.00 in
19:28 77.2 °F 70.9 °F 29.75 in SE 9.0 mph 15.0 mph 81 % 0.00 in
19:33 77.0 °F 70.7 °F 29.75 in SE 8.0 mph 17.0 mph 81 % 0.00 in
19:39 76.8 °F 70.9 °F 29.75 in SE 8.0 mph 17.0 mph 82 % 0.00 in
19:44 76.8 °F 70.9 °F 29.75 in East 10.0 mph 17.0 mph 82 % 0.00 in
19:49 76.8 °F 71.2 °F 29.75 in SE 4.0 mph 17.0 mph 83 % 0.00 in
19:54 76.6 °F 71.1 °F 29.75 in SE 5.0 mph 17.0 mph 83 % 0.00 in
19:59 76.6 °F 71.4 °F 29.75 in SE 4.0 mph 17.0 mph 84 % 0.00 in
20:04 76.5 °F 71.2 °F 29.75 in SE 7.0 mph 17.0 mph 84 % 0.00 in
20:09 76.5 °F 71.2 °F 29.75 in ESE 10.0 mph 14.0 mph 84 % 0.00 in
20:14 76.3 °F 71.1 °F 29.75 in East 7.0 mph 14.0 mph 84 % 0.00 in
20:19 76.3 °F 71.1 °F 29.75 in ENE 4.0 mph 14.0 mph 84 % 0.00 in
20:24 76.3 °F 71.4 °F 29.75 in SSE 6.0 mph 15.0 mph 85 % 0.00 in
20:29 76.1 °F 71.2 °F 29.75 in SE 6.0 mph 17.0 mph 85 % 0.00 in
20:34 76.1 °F 71.2 °F 29.75 in East 14.0 mph 17.0 mph 85 % 0.00 in
20:39 75.9 °F 71.4 °F 29.75 in SSE 8.0 mph 17.0 mph 86 % 0.00 in
20:44 75.9 °F 71.4 °F 29.75 in East 9.0 mph 15.0 mph 86 % 0.00 in
20:49 75.9 °F 71.4 °F 29.75 in SE 6.0 mph 15.0 mph 86 % 0.00 in
20:54 75.9 °F 71.1 °F 29.74 in SE 8.0 mph 15.0 mph 85 % 0.00 in
20:59 75.9 °F 71.1 °F 29.74 in ESE 13.0 mph 17.0 mph 85 % 0.00 in
21:04 76.1 °F 71.2 °F 29.74 in ESE 6.0 mph 18.0 mph 85 % 0.00 in
21:09 76.1 °F 70.9 °F 29.74 in ESE 16.0 mph 18.0 mph 84 % 0.00 in
21:14 76.3 °F 71.1 °F 29.75 in SE 15.0 mph 20.0 mph 84 % 0.00 in
21:19 76.3 °F 71.1 °F 29.75 in SE 8.0 mph 20.0 mph 84 % 0.00 in
21:24 76.3 °F 71.1 °F 29.75 in East 6.0 mph 21.0 mph 84 % 0.00 in
21:29 76.3 °F 71.1 °F 29.75 in ESE 12.0 mph 21.0 mph 84 % 0.00 in
21:34 76.3 °F 71.1 °F 29.75 in SSE 7.0 mph 21.0 mph 84 % 0.00 in
21:39 76.3 °F 71.1 °F 29.75 in SE 17.0 mph 18.0 mph 84 % 0.00 in
21:44 76.3 °F 70.7 °F 29.75 in South 8.0 mph 19.0 mph 83 % 0.00 in
21:49 76.3 °F 71.1 °F 29.75 in SSE 4.0 mph 19.0 mph 84 % 0.00 in
21:54 76.3 °F 71.1 °F 29.75 in SE 7.0 mph 19.0 mph 84 % 0.00 in
21:59 76.3 °F 71.1 °F 29.75 in East 14.0 mph 19.0 mph 84 % 0.00 in
22:04 76.3 °F 71.1 °F 29.75 in SE 7.0 mph 19.0 mph 84 % 0.00 in
22:09 76.3 °F 71.1 °F 29.75 in SE 9.0 mph 19.0 mph 84 % 0.00 in
22:14 76.3 °F 71.1 °F 29.75 in SSE 9.0 mph 17.0 mph 84 % 0.00 in
22:19 76.3 °F 71.1 °F 29.75 in ESE 14.0 mph 19.0 mph 84 % 0.00 in
22:24 76.3 °F 71.1 °F 29.74 in South 11.0 mph 19.0 mph 84 % 0.00 in
22:29 76.3 °F 70.7 °F 29.74 in SSE 12.0 mph 20.0 mph 83 % 0.00 in
22:35 76.3 °F 70.7 °F 29.75 in ESE 13.0 mph 21.0 mph 83 % 0.00 in
22:40 76.3 °F 70.7 °F 29.74 in ESE 8.0 mph 21.0 mph 83 % 0.00 in
22:45 76.3 °F 70.7 °F 29.74 in SE 11.0 mph 21.0 mph 83 % 0.00 in
22:50 76.3 °F 70.7 °F 29.74 in SE 8.0 mph 19.0 mph 83 % 0.00 in
22:55 76.1 °F 70.5 °F 29.73 in SE 15.0 mph 19.0 mph 83 % 0.00 in
23:00 75.9 °F 70.3 °F 29.73 in ESE 13.0 mph 17.0 mph 83 % 0.00 in
23:05 76.1 °F 70.5 °F 29.73 in SE 8.0 mph 18.0 mph 83 % 0.00 in
23:10 76.1 °F 70.5 °F 29.73 in South 8.0 mph 20.0 mph 83 % 0.00 in
23:15 76.1 °F 70.5 °F 29.73 in East 10.0 mph 23.0 mph 83 % 0.00 in
23:20 76.1 °F 70.5 °F 29.73 in SE 11.0 mph 23.0 mph 83 % 0.00 in
23:25 76.1 °F 70.2 °F 29.73 in SE 10.0 mph 23.0 mph 82 % 0.00 in
23:30 76.1 °F 70.2 °F 29.73 in SE 25.0 mph 25.0 mph 82 % 0.00 in
23:35 76.1 °F 70.2 °F 29.73 in SSE 13.0 mph 25.0 mph 82 % 0.00 in
23:40 75.9 °F 70.0 °F 29.73 in ESE 12.0 mph 25.0 mph 82 % 0.00 in
23:45 75.9 °F 70.0 °F 29.73 in SSE 10.0 mph 25.0 mph 82 % 0.00 in
23:50 75.9 °F 70.0 °F 29.73 in SE 13.0 mph 18.0 mph 82 % 0.00 in
23:55 75.7 °F 69.8 °F 29.73 in SE 8.0 mph 19.0 mph 82 % 0.00 in
Spring, Texas: Villages of Bridgestone
Compliments of Weather Underground - 2.75 mb

Script developed by  Jim McMurry - jmcmurry@mwt.net Adapted for the template by  Wim van der Kuil - Leuven-Template.eu

You find our weather info also at:

UK Metoffice

WeatherCloud

Weather Underground

Mid-South Weather Network

AWEKAS

Citizen Weather Observer Program (CWOP)

HAMweather, WeatherForYou, PWS Weather

Equipment we use:

Weather-station
Davis Vantage Vue

Weather-program
Meteohub

Weather-server
Debian 7.9 x86 (Guest)

Provider
DreamHost

Davis Vantage Vue

Meteohub

Debian 7.9 x86 (Guest)

DreamHost